createdAt,value
2018-04-29T00:00:01.682Z,15.35
2018-04-29T00:02:29.096Z,15.37
2018-04-29T00:04:56.485Z,15.37
2018-04-29T00:07:23.929Z,15.36
2018-04-29T00:09:51.394Z,15.45
2018-04-29T00:12:18.801Z,15.47
2018-04-29T00:14:46.197Z,15.39
2018-04-29T00:17:13.604Z,15.39
2018-04-29T00:19:41.038Z,15.32
2018-04-29T00:22:08.441Z,15.05
2018-04-29T00:24:35.846Z,14.98
2018-04-29T00:27:03.286Z,14.94
2018-04-29T00:29:30.712Z,14.94
2018-04-29T00:31:58.109Z,14.84
2018-04-29T00:34:25.508Z,14.82
2018-04-29T00:36:52.989Z,14.71
2018-04-29T00:39:20.385Z,14.74
2018-04-29T00:41:47.797Z,14.76
2018-04-29T00:44:15.317Z,14.89
2018-04-29T00:46:42.720Z,15.04
2018-04-29T00:49:10.181Z,15.02
2018-04-29T00:51:49.430Z,15.04
2018-04-29T00:54:16.884Z,15.25
2018-04-29T00:56:44.343Z,15.31
2018-04-29T00:59:11.748Z,15.33
2018-04-29T01:01:39.257Z,15.34
2018-04-29T01:04:06.753Z,15.40
2018-04-29T01:06:34.176Z,15.49
2018-04-29T01:09:01.637Z,15.31
2018-04-29T01:11:29.051Z,15.15
2018-04-29T01:13:56.865Z,15.03
2018-04-29T01:16:24.264Z,15.00
2018-04-29T01:18:51.668Z,15.02
2018-04-29T01:21:19.061Z,14.82
2018-04-29T01:23:46.477Z,14.70
2018-04-29T01:26:13.872Z,14.79
2018-04-29T01:28:41.299Z,14.67
2018-04-29T01:31:08.705Z,14.83
2018-04-29T01:33:36.114Z,14.87
2018-04-29T01:36:03.549Z,14.82
2018-04-29T01:38:31.011Z,14.95
2018-04-29T01:40:58.400Z,14.96
2018-04-29T01:43:25.840Z,14.84
2018-04-29T01:45:53.263Z,14.78
2018-04-29T01:48:20.729Z,14.87
2018-04-29T01:50:48.141Z,15.01
2018-04-29T01:53:15.544Z,14.98
2018-04-29T01:55:42.956Z,14.76
2018-04-29T01:58:10.412Z,14.70
2018-04-29T02:00:37.883Z,14.71
2018-04-29T02:03:05.289Z,14.81
2018-04-29T02:05:32.681Z,14.79
2018-04-29T02:08:00.144Z,14.86
2018-04-29T02:10:27.532Z,14.75
2018-04-29T02:12:54.933Z,14.86
2018-04-29T02:15:22.419Z,14.73
2018-04-29T02:17:49.829Z,14.78
2018-04-29T02:20:17.329Z,14.80
2018-04-29T02:22:44.728Z,14.86
2018-04-29T02:25:12.133Z,14.80
2018-04-29T02:27:39.644Z,14.59
2018-04-29T02:30:07.069Z,14.61
2018-04-29T02:32:34.524Z,14.59
2018-04-29T02:35:02.017Z,14.51
2018-04-29T02:37:29.440Z,14.56
2018-04-29T02:39:56.892Z,14.50
2018-04-29T02:42:24.297Z,14.39
2018-04-29T02:44:51.699Z,14.37
2018-04-29T02:47:19.164Z,14.34
2018-04-29T02:49:46.574Z,14.36
2018-04-29T02:52:13.972Z,14.42
2018-04-29T02:54:41.378Z,14.44
2018-04-29T02:57:08.790Z,14.40
2018-04-29T02:59:36.285Z,14.34
2018-04-29T03:02:03.720Z,14.30
2018-04-29T03:04:31.104Z,14.23
2018-04-29T03:06:58.608Z,14.28
2018-04-29T03:09:26.087Z,14.21
2018-04-29T03:11:53.501Z,13.95
2018-04-29T03:14:20.986Z,13.60
2018-04-29T03:16:48.436Z,13.47
2018-04-29T03:19:15.908Z,13.53
2018-04-29T03:21:43.320Z,13.64
2018-04-29T03:24:10.724Z,13.60
2018-04-29T03:26:38.142Z,13.54
2018-04-29T03:29:05.621Z,13.54
2018-04-29T03:31:33.055Z,13.56
2018-04-29T03:34:00.460Z,13.46
2018-04-29T03:36:27.861Z,13.37
2018-04-29T03:38:55.359Z,13.27
2018-04-29T03:41:22.763Z,13.23
2018-04-29T03:43:50.307Z,13.22
2018-04-29T03:46:17.704Z,13.06
2018-04-29T03:48:45.189Z,12.92
2018-04-29T03:51:12.594Z,12.71
2018-04-29T03:53:40.001Z,12.66
2018-04-29T03:56:07.498Z,12.67
2018-04-29T03:58:46.616Z,12.81
2018-04-29T04:01:25.805Z,12.83
2018-04-29T04:03:57.553Z,12.85
2018-04-29T04:06:24.960Z,12.72
2018-04-29T04:08:52.471Z,12.61
2018-04-29T04:11:19.877Z,12.51
2018-04-29T04:13:47.290Z,12.38
2018-04-29T04:16:14.757Z,12.55
2018-04-29T04:18:42.164Z,12.59
2018-04-29T04:21:09.638Z,12.65
2018-04-29T04:23:37.070Z,12.64
2018-04-29T04:26:04.457Z,12.61
2018-04-29T04:28:31.882Z,12.60
2018-04-29T04:30:59.374Z,12.59
2018-04-29T04:33:26.789Z,12.61
2018-04-29T04:35:54.301Z,12.53
2018-04-29T04:38:21.705Z,12.59
2018-04-29T04:40:49.112Z,12.68
2018-04-29T04:43:16.523Z,12.58
2018-04-29T04:45:44.020Z,12.72
2018-04-29T04:48:11.424Z,12.83
2018-04-29T04:50:38.957Z,13.04
2018-04-29T04:53:06.325Z,13.11
2018-04-29T04:55:33.733Z,13.11
2018-04-29T04:58:01.218Z,12.99
2018-04-29T05:00:28.624Z,12.72
2018-04-29T05:02:56.029Z,12.61
2018-04-29T05:05:23.469Z,12.94
2018-04-29T05:07:50.870Z,13.28
2018-04-29T05:10:18.265Z,14.07
2018-04-29T05:12:45.677Z,15.65
2018-04-29T05:15:13.084Z,17.48
2018-04-29T05:17:40.477Z,19.05
2018-04-29T05:20:07.883Z,20.15
2018-04-29T05:22:35.362Z,21.42
2018-04-29T05:25:02.818Z,21.77
2018-04-29T05:27:30.213Z,22.54
2018-04-29T05:29:57.613Z,23.57
2018-04-29T05:32:25.017Z,24.17
2018-04-29T05:34:52.439Z,24.81
2018-04-29T05:37:19.840Z,25.26
2018-04-29T05:39:47.377Z,25.01
2018-04-29T05:42:14.810Z,25.63
2018-04-29T05:44:43.117Z,25.71
2018-04-29T05:47:10.525Z,26.20
2018-04-29T05:49:37.929Z,26.38
2018-04-29T05:52:05.348Z,26.49
2018-04-29T05:54:32.814Z,26.11
2018-04-29T05:57:00.237Z,25.77
2018-04-29T05:59:27.726Z,25.49
2018-04-29T06:01:55.181Z,25.17
2018-04-29T06:04:22.580Z,24.84
2018-04-29T06:06:49.989Z,24.66
2018-04-29T06:09:17.445Z,24.24
2018-04-29T06:11:45.667Z,24.50
2018-04-29T06:14:13.085Z,24.03
2018-04-29T06:16:40.534Z,24.02
2018-04-29T06:19:07.953Z,24.27
2018-04-29T06:21:35.364Z,24.63
2018-04-29T06:24:02.817Z,25.12
2018-04-29T06:26:30.271Z,24.78
2018-04-29T06:28:57.718Z,24.62
2018-04-29T06:31:25.206Z,23.70
2018-04-29T06:33:52.593Z,23.28
2018-04-29T06:36:20.001Z,24.20
2018-04-29T06:38:47.448Z,24.41
2018-04-29T06:41:14.982Z,24.47
2018-04-29T06:43:42.466Z,24.30
2018-04-29T06:46:09.852Z,25.25
2018-04-29T06:48:37.778Z,26.28
2018-04-29T06:51:05.182Z,26.31
2018-04-29T06:53:32.613Z,26.49
2018-04-29T06:55:59.981Z,26.76
2018-04-29T06:58:27.369Z,26.19
2018-04-29T07:00:54.863Z,26.44
2018-04-29T07:03:22.495Z,27.71
2018-04-29T07:05:49.896Z,27.47
2018-04-29T07:08:17.372Z,28.73
2018-04-29T07:10:44.705Z,28.76
2018-04-29T07:13:12.146Z,28.19
2018-04-29T07:15:39.578Z,27.43
2018-04-29T07:18:07.057Z,27.80
2018-04-29T07:20:34.518Z,28.03
2018-04-29T07:23:01.923Z,27.72
2018-04-29T07:25:29.435Z,27.69
2018-04-29T07:27:56.890Z,27.32
2018-04-29T07:30:24.306Z,27.64
2018-04-29T07:32:51.801Z,27.95
2018-04-29T07:35:19.202Z,27.13
2018-04-29T07:37:46.592Z,26.56
2018-04-29T07:40:14.167Z,26.43
2018-04-29T07:42:41.465Z,25.99
2018-04-29T07:45:08.865Z,26.38
2018-04-29T07:47:36.364Z,26.41
2018-04-29T07:50:03.741Z,27.21
2018-04-29T07:52:31.331Z,27.65
2018-04-29T07:54:58.619Z,26.79
2018-04-29T07:57:26.009Z,25.61
2018-04-29T07:59:53.412Z,25.07
2018-04-29T08:02:20.805Z,25.53
2018-04-29T08:04:48.207Z,25.85
2018-04-29T08:07:15.605Z,25.31
2018-04-29T08:09:43.028Z,24.31
2018-04-29T08:12:10.462Z,23.93
2018-04-29T08:14:37.925Z,23.84
2018-04-29T08:17:05.317Z,24.08
2018-04-29T08:19:32.701Z,24.51
2018-04-29T08:22:00.097Z,24.40
2018-04-29T08:24:27.529Z,24.20
2018-04-29T08:26:54.929Z,24.14
2018-04-29T08:29:22.320Z,23.75
2018-04-29T08:31:49.813Z,24.03
2018-04-29T08:34:17.227Z,24.29
2018-04-29T08:36:44.640Z,23.61
2018-04-29T08:39:12.025Z,23.13
2018-04-29T08:41:39.429Z,23.01
2018-04-29T08:44:06.901Z,23.21
2018-04-29T08:46:34.370Z,23.21
2018-04-29T08:49:01.762Z,23.34
2018-04-29T08:51:29.160Z,22.38
2018-04-29T08:53:56.631Z,21.91
2018-04-29T08:56:24.017Z,22.20
2018-04-29T08:58:51.417Z,22.84
2018-04-29T09:01:18.914Z,22.90
2018-04-29T09:03:46.376Z,22.69
2018-04-29T09:06:13.751Z,23.01
2018-04-29T09:08:41.141Z,22.72
2018-04-29T09:11:08.537Z,22.24
2018-04-29T09:13:35.926Z,22.09
2018-04-29T09:16:03.424Z,22.31
2018-04-29T09:18:30.889Z,22.08
2018-04-29T09:20:58.373Z,22.07
2018-04-29T09:23:25.801Z,22.23
2018-04-29T09:25:53.263Z,22.21
2018-04-29T09:28:20.721Z,22.61
2018-04-29T09:30:48.122Z,23.03
2018-04-29T09:33:15.525Z,22.88
2018-04-29T09:35:42.994Z,23.01
2018-04-29T09:38:10.381Z,23.32
2018-04-29T09:40:37.798Z,22.99
2018-04-29T09:43:05.266Z,22.89
2018-04-29T09:45:32.713Z,22.51
2018-04-29T09:48:00.101Z,22.21
2018-04-29T09:50:27.529Z,22.07
2018-04-29T09:52:54.913Z,21.92
2018-04-29T09:55:22.373Z,21.97
2018-04-29T09:57:49.693Z,22.03
2018-04-29T10:00:31.976Z,22.19
2018-04-29T10:03:04.856Z,22.46
2018-04-29T10:05:32.253Z,22.72
2018-04-29T10:07:59.650Z,22.64
2018-04-29T10:10:27.189Z,22.51
2018-04-29T10:12:54.565Z,22.60
2018-04-29T10:15:21.968Z,22.67
2018-04-29T10:17:49.429Z,22.76
2018-04-29T10:20:16.820Z,23.17
2018-04-29T10:22:44.237Z,23.34
2018-04-29T10:25:11.693Z,23.64
2018-04-29T10:27:39.091Z,23.64
2018-04-29T10:30:06.479Z,23.54
2018-04-29T10:32:33.881Z,23.44
2018-04-29T10:35:01.320Z,23.22
2018-04-29T10:37:28.726Z,23.22
2018-04-29T10:39:56.113Z,23.10
2018-04-29T10:42:23.509Z,22.54
2018-04-29T10:44:50.916Z,22.27
2018-04-29T10:47:19.192Z,22.64
2018-04-29T10:49:46.589Z,22.67
2018-04-29T10:52:14.005Z,22.66
2018-04-29T10:54:41.389Z,22.82
2018-04-29T10:57:08.833Z,23.02
2018-04-29T10:59:36.217Z,22.90
2018-04-29T11:02:03.617Z,22.90
2018-04-29T11:04:31.005Z,22.98
2018-04-29T11:06:58.416Z,22.63
2018-04-29T11:09:25.898Z,22.93
2018-04-29T11:11:53.357Z,22.83
2018-04-29T11:14:20.744Z,22.92
2018-04-29T11:16:48.141Z,23.20
2018-04-29T11:19:15.694Z,22.65
2018-04-29T11:21:43.076Z,22.40
2018-04-29T11:24:10.477Z,22.41
2018-04-29T11:26:37.873Z,22.32
2018-04-29T11:29:05.269Z,22.32
2018-04-29T11:31:33.593Z,22.62
2018-04-29T11:34:00.985Z,23.04
2018-04-29T11:36:28.453Z,23.24
2018-04-29T11:38:55.849Z,23.19
2018-04-29T11:41:23.241Z,23.02
2018-04-29T11:43:50.632Z,22.99
2018-04-29T11:46:18.028Z,22.92
2018-04-29T11:48:45.513Z,22.86
2018-04-29T11:51:12.930Z,22.94
2018-04-29T11:53:40.322Z,23.07
2018-04-29T11:56:07.786Z,22.92
2018-04-29T11:58:35.249Z,22.70
2018-04-29T12:01:02.637Z,22.71
2018-04-29T12:03:30.050Z,22.42
2018-04-29T12:05:57.522Z,22.41
2018-04-29T12:08:24.968Z,22.57
2018-04-29T12:10:52.369Z,22.54
2018-04-29T12:13:19.765Z,22.67
2018-04-29T12:15:47.169Z,22.64
2018-04-29T12:18:14.576Z,22.91
2018-04-29T12:20:42.057Z,22.96
2018-04-29T12:23:09.533Z,23.20
2018-04-29T12:25:36.997Z,23.49
2018-04-29T12:28:04.393Z,23.52
2018-04-29T12:30:31.820Z,23.43
2018-04-29T12:32:59.210Z,23.28
2018-04-29T12:35:26.613Z,23.53
2018-04-29T12:37:54.061Z,23.42
2018-04-29T12:40:21.458Z,23.72
2018-04-29T12:42:48.848Z,23.56
2018-04-29T12:45:16.329Z,23.65
2018-04-29T12:47:43.737Z,23.78
2018-04-29T12:50:11.674Z,23.95
2018-04-29T12:52:39.113Z,23.93
2018-04-29T12:55:06.566Z,23.90
2018-04-29T12:57:33.960Z,23.66
2018-04-29T13:00:01.561Z,23.50
2018-04-29T13:02:28.936Z,23.85
2018-04-29T13:04:56.359Z,24.22
2018-04-29T13:07:23.788Z,24.37
2018-04-29T13:09:51.172Z,24.33
2018-04-29T13:12:19.355Z,24.16
2018-04-29T13:14:46.826Z,24.18
2018-04-29T13:17:14.217Z,24.15
2018-04-29T13:19:41.614Z,23.94
2018-04-29T13:22:09.009Z,23.66
2018-04-29T13:24:36.410Z,23.55
2018-04-29T13:27:03.812Z,23.45
2018-04-29T13:29:31.293Z,23.46
2018-04-29T13:31:58.752Z,23.58
2018-04-29T13:34:26.128Z,23.71
2018-04-29T13:36:53.525Z,23.83
2018-04-29T13:39:20.905Z,23.89
2018-04-29T13:41:48.293Z,24.16
2018-04-29T13:44:15.672Z,24.58
2018-04-29T13:46:43.161Z,24.97
2018-04-29T13:49:10.689Z,25.16
2018-04-29T13:51:38.121Z,25.39
2018-04-29T13:54:05.495Z,25.32
2018-04-29T13:56:32.908Z,25.23
2018-04-29T13:59:00.365Z,25.00
2018-04-29T14:01:27.749Z,25.24
2018-04-29T14:03:55.146Z,24.92
2018-04-29T14:06:22.622Z,24.84
2018-04-29T14:08:50.017Z,25.06
2018-04-29T14:11:17.409Z,25.24
2018-04-29T14:13:44.813Z,25.27
2018-04-29T14:16:12.233Z,25.36
2018-04-29T14:18:39.700Z,24.78
2018-04-29T14:21:07.100Z,24.77
2018-04-29T14:23:34.497Z,24.74
2018-04-29T14:26:01.893Z,24.83
2018-04-29T14:28:29.289Z,24.69
2018-04-29T14:30:56.701Z,24.48
2018-04-29T14:33:24.082Z,24.83
2018-04-29T14:35:51.472Z,24.88
2018-04-29T14:38:18.865Z,24.72
2018-04-29T14:40:47.439Z,24.92
2018-04-29T14:43:14.897Z,25.14
2018-04-29T14:45:42.277Z,25.28
2018-04-29T14:48:09.681Z,25.41
2018-04-29T14:50:37.072Z,25.34
2018-04-29T14:53:04.478Z,25.15
2018-04-29T14:55:31.868Z,25.09
2018-04-29T14:57:59.272Z,24.73
2018-04-29T15:00:26.750Z,24.54
2018-04-29T15:02:54.191Z,24.31
2018-04-29T15:05:21.652Z,24.25
2018-04-29T15:07:49.104Z,24.47
2018-04-29T15:10:16.488Z,24.64
2018-04-29T15:12:43.882Z,24.55
2018-04-29T15:15:11.377Z,24.67
2018-04-29T15:17:38.857Z,24.60
2018-04-29T15:20:06.242Z,24.44
2018-04-29T15:22:33.650Z,24.41
2018-04-29T15:25:01.053Z,24.44
2018-04-29T15:27:28.747Z,24.45
2018-04-29T15:29:56.133Z,24.61
2018-04-29T15:32:23.593Z,24.59
2018-04-29T15:34:50.999Z,24.57
2018-04-29T15:37:18.517Z,24.67
2018-04-29T15:39:45.905Z,24.78
2018-04-29T15:42:13.304Z,24.96
2018-04-29T15:44:40.783Z,24.98
2018-04-29T15:47:08.167Z,24.99
2018-04-29T15:49:35.583Z,25.24
2018-04-29T15:52:03.038Z,25.44
2018-04-29T15:54:30.588Z,25.67
2018-04-29T15:56:57.884Z,25.88
2018-04-29T15:59:25.360Z,25.86
2018-04-29T16:01:52.813Z,25.97
2018-04-29T16:04:20.266Z,25.89
2018-04-29T16:06:47.737Z,24.82
2018-04-29T16:09:15.186Z,24.17
2018-04-29T16:11:42.657Z,23.96
2018-04-29T16:14:10.010Z,23.67
2018-04-29T16:16:37.383Z,23.41
2018-04-29T16:19:04.818Z,23.21
2018-04-29T16:21:32.218Z,22.96
2018-04-29T16:23:59.726Z,22.95
2018-04-29T16:26:27.076Z,22.72
2018-04-29T16:28:54.475Z,22.86
2018-04-29T16:31:21.848Z,22.69
2018-04-29T16:33:49.249Z,22.71
2018-04-29T16:36:16.633Z,22.51
2018-04-29T16:38:44.945Z,22.47
2018-04-29T16:41:12.421Z,22.45
2018-04-29T16:43:39.855Z,22.07
2018-04-29T16:46:07.318Z,21.90
2018-04-29T16:48:34.709Z,21.83
2018-04-29T16:51:02.143Z,21.78
2018-04-29T16:53:29.543Z,21.87
2018-04-29T16:55:56.937Z,22.03
2018-04-29T16:58:24.401Z,22.14
2018-04-29T17:00:51.799Z,22.09
2018-04-29T17:03:19.218Z,22.07
2018-04-29T17:05:46.613Z,22.00
2018-04-29T17:08:14.025Z,22.06
2018-04-29T17:10:41.510Z,21.93
2018-04-29T17:13:08.905Z,21.86
2018-04-29T17:15:36.309Z,21.89
2018-04-29T17:18:03.701Z,21.99
2018-04-29T17:20:31.109Z,21.94
2018-04-29T17:22:58.580Z,22.00
2018-04-29T17:25:25.977Z,21.84
2018-04-29T17:27:53.454Z,21.69
2018-04-29T17:30:20.840Z,21.54
2018-04-29T17:32:48.276Z,21.68
2018-04-29T17:35:15.729Z,21.71
2018-04-29T17:37:43.157Z,21.64
2018-04-29T17:40:10.558Z,21.57
2018-04-29T17:42:37.934Z,21.58
2018-04-29T17:45:05.357Z,21.39
2018-04-29T17:47:32.827Z,21.55
2018-04-29T17:50:00.228Z,21.43
2018-04-29T17:52:27.717Z,21.53
2018-04-29T17:54:55.112Z,21.59
2018-04-29T17:57:22.518Z,21.53
2018-04-29T17:59:49.908Z,21.64
2018-04-29T18:02:17.311Z,21.74
2018-04-29T18:04:44.700Z,21.89
2018-04-29T18:07:12.113Z,21.82
2018-04-29T18:09:39.492Z,21.83
2018-04-29T18:12:06.881Z,21.70
2018-04-29T18:14:34.273Z,21.74
2018-04-29T18:17:01.656Z,21.69
2018-04-29T18:19:29.047Z,21.59
2018-04-29T18:21:56.512Z,21.68
2018-04-29T18:24:23.937Z,21.67
2018-04-29T18:26:51.321Z,21.79
2018-04-29T18:29:18.714Z,21.72
2018-04-29T18:31:46.157Z,21.89
2018-04-29T18:34:13.573Z,21.82
2018-04-29T18:36:41.037Z,21.75
2018-04-29T18:39:08.441Z,21.48
2018-04-29T18:41:35.845Z,21.38
2018-04-29T18:44:03.296Z,21.20
2018-04-29T18:46:30.702Z,20.99
2018-04-29T18:48:58.093Z,20.95
2018-04-29T18:51:25.561Z,20.77
2018-04-29T18:53:52.873Z,20.71
2018-04-29T18:56:20.318Z,20.70
2018-04-29T18:58:47.745Z,20.36
2018-04-29T19:01:15.179Z,20.27
2018-04-29T19:03:42.549Z,20.12
2018-04-29T19:06:09.936Z,20.02
2018-04-29T19:08:37.336Z,19.89
2018-04-29T19:11:04.835Z,19.81
2018-04-29T19:13:32.229Z,19.74
2018-04-29T19:15:59.720Z,19.77
2018-04-29T19:18:27.165Z,19.80
2018-04-29T19:20:54.565Z,19.87
2018-04-29T19:23:21.977Z,19.88
2018-04-29T19:25:49.381Z,19.81
2018-04-29T19:28:16.827Z,19.66
2018-04-29T19:30:44.240Z,19.45
2018-04-29T19:33:11.703Z,19.39
2018-04-29T19:35:39.093Z,19.38
2018-04-29T19:38:06.506Z,19.26
2018-04-29T19:40:33.982Z,19.29
2018-04-29T19:43:01.422Z,19.31
2018-04-29T19:45:28.852Z,19.30
2018-04-29T19:47:56.240Z,19.29
2018-04-29T19:50:23.704Z,19.29
2018-04-29T19:52:51.109Z,19.31
2018-04-29T19:55:18.520Z,19.27
2018-04-29T19:57:45.976Z,19.35
2018-04-29T20:00:13.373Z,19.32
2018-04-29T20:02:40.756Z,19.24
2018-04-29T20:05:08.150Z,19.19
2018-04-29T20:07:35.538Z,19.25
2018-04-29T20:10:02.964Z,19.13
2018-04-29T20:12:30.421Z,19.23
2018-04-29T20:14:57.901Z,19.08
2018-04-29T20:17:25.309Z,19.12
2018-04-29T20:19:52.797Z,19.03
2018-04-29T20:22:20.237Z,18.97
2018-04-29T20:24:47.711Z,18.92
2018-04-29T20:27:15.097Z,19.00
2018-04-29T20:29:42.503Z,18.84
2018-04-29T20:32:09.893Z,18.91
2018-04-29T20:34:37.294Z,18.85
2018-04-29T20:37:04.769Z,18.77
2018-04-29T20:39:32.172Z,18.80
2018-04-29T20:41:59.589Z,18.78
2018-04-29T20:44:26.995Z,18.76
2018-04-29T20:46:54.390Z,18.81
2018-04-29T20:49:21.789Z,18.77
2018-04-29T20:51:49.208Z,18.80
2018-04-29T20:54:16.613Z,18.61
2018-04-29T20:56:44.010Z,18.70
2018-04-29T20:59:11.421Z,18.58
2018-04-29T21:01:38.818Z,18.56
2018-04-29T21:04:06.195Z,18.56
2018-04-29T21:06:33.641Z,18.44
2018-04-29T21:09:01.040Z,18.24
2018-04-29T21:11:28.437Z,18.09
2018-04-29T21:13:55.838Z,17.95
2018-04-29T21:16:23.269Z,18.06
2018-04-29T21:18:50.657Z,17.88
2018-04-29T21:21:18.049Z,17.79
2018-04-29T21:23:45.466Z,17.73
2018-04-29T21:26:12.895Z,17.70
2018-04-29T21:28:40.582Z,17.75
2018-04-29T21:31:07.973Z,17.70
2018-04-29T21:33:35.429Z,17.72
2018-04-29T21:36:02.820Z,17.71
2018-04-29T21:38:30.291Z,17.68
2018-04-29T21:40:57.693Z,17.61
2018-04-29T21:43:25.080Z,17.80
2018-04-29T21:45:52.546Z,17.67
2018-04-29T21:48:19.929Z,17.55
2018-04-29T21:50:47.357Z,17.59
2018-04-29T21:53:14.831Z,17.44
2018-04-29T21:55:42.217Z,17.51
2018-04-29T21:58:09.640Z,17.45
2018-04-29T22:00:37.044Z,17.37
2018-04-29T22:03:04.533Z,17.28
2018-04-29T22:05:32.019Z,17.27
2018-04-29T22:07:59.465Z,17.24
2018-04-29T22:10:26.915Z,17.28
2018-04-29T22:12:54.293Z,17.24
2018-04-29T22:15:21.689Z,17.24
2018-04-29T22:17:49.090Z,17.26
2018-04-29T22:20:16.550Z,17.23
2018-04-29T22:22:43.929Z,17.26
2018-04-29T22:25:11.317Z,17.26
2018-04-29T22:27:38.793Z,17.28
2018-04-29T22:30:06.189Z,17.24
2018-04-29T22:32:33.609Z,17.24
2018-04-29T22:35:01.000Z,17.20
2018-04-29T22:37:28.412Z,17.19
2018-04-29T22:39:55.897Z,17.22
2018-04-29T22:42:23.317Z,17.13
2018-04-29T22:44:50.797Z,17.13
2018-04-29T22:47:18.211Z,17.14
2018-04-29T22:49:45.609Z,17.22
2018-04-29T22:52:13.029Z,17.19
2018-04-29T22:54:40.413Z,17.30
2018-04-29T22:57:07.825Z,17.36
2018-04-29T22:59:35.284Z,17.29
2018-04-29T23:02:02.678Z,17.18
2018-04-29T23:04:30.097Z,17.08
2018-04-29T23:06:57.485Z,17.13
2018-04-29T23:09:24.882Z,17.15
2018-04-29T23:11:52.293Z,17.14
2018-04-29T23:14:19.681Z,17.25
2018-04-29T23:16:47.101Z,17.24
2018-04-29T23:19:14.513Z,17.15
2018-04-29T23:21:41.940Z,17.19
2018-04-29T23:24:09.422Z,17.09
2018-04-29T23:26:36.811Z,17.14
2018-04-29T23:29:04.213Z,17.06
2018-04-29T23:31:31.624Z,17.09
2018-04-29T23:33:59.015Z,16.98
2018-04-29T23:36:26.477Z,17.03
2018-04-29T23:38:53.941Z,17.05
2018-04-29T23:41:21.397Z,17.06
2018-04-29T23:43:48.853Z,17.00
2018-04-29T23:46:16.305Z,17.03
2018-04-29T23:48:43.702Z,16.95
2018-04-29T23:51:11.094Z,16.90
2018-04-29T23:53:38.474Z,16.91
2018-04-29T23:56:05.884Z,16.80
2018-04-29T23:58:33.269Z,16.80
